sensor_id;sensor_type;location;lat;lon;timestamp;temperature;humidity
16160;DHT22;8185;57.818;15.224;2023-03-03T00:00:48;0.80;99.90
16160;DHT22;8185;57.818;15.224;2023-03-03T00:03:18;0.80;99.90
16160;DHT22;8185;57.818;15.224;2023-03-03T00:05:47;0.80;99.90
16160;DHT22;8185;57.818;15.224;2023-03-03T00:08:15;0.70;99.90
16160;DHT22;8185;57.818;15.224;2023-03-03T00:10:43;0.70;99.90
16160;DHT22;8185;57.818;15.224;2023-03-03T00:13:15;0.70;99.90
16160;DHT22;8185;57.818;15.224;2023-03-03T00:15:42;0.70;99.90
16160;DHT22;8185;57.818;15.224;2023-03-03T00:18:20;0.60;99.90
16160;DHT22;8185;57.818;15.224;2023-03-03T00:20:52;0.60;99.90
16160;DHT22;8185;57.818;15.224;2023-03-03T00:23:26;0.50;99.90
16160;DHT22;8185;57.818;15.224;2023-03-03T00:25:55;0.50;99.90
16160;DHT22;8185;57.818;15.224;2023-03-03T00:28:25;0.50;99.90
16160;DHT22;8185;57.818;15.224;2023-03-03T00:30:54;0.40;99.90
16160;DHT22;8185;57.818;15.224;2023-03-03T00:33:30;0.40;99.90
16160;DHT22;8185;57.818;15.224;2023-03-03T00:39:18;0.30;99.90
16160;DHT22;8185;57.818;15.224;2023-03-03T00:41:48;0.20;99.90
16160;DHT22;8185;57.818;15.224;2023-03-03T00:44:38;0.20;99.90
16160;DHT22;8185;57.818;15.224;2023-03-03T00:47:27;0.20;99.90
16160;DHT22;8185;57.818;15.224;2023-03-03T00:52:48;-0.10;99.90
16160;DHT22;8185;57.818;15.224;2023-03-03T00:55:19;-0.30;99.90
16160;DHT22;8185;57.818;15.224;2023-03-03T00:57:46;-0.40;99.90
16160;DHT22;8185;57.818;15.224;2023-03-03T01:00:14;-0.50;99.90
16160;DHT22;8185;57.818;15.224;2023-03-03T01:02:41;-0.50;99.90
16160;DHT22;8185;57.818;15.224;2023-03-03T01:05:13;-0.60;99.90
16160;DHT22;8185;57.818;15.224;2023-03-03T01:07:40;-0.60;99.90
16160;DHT22;8185;57.818;15.224;2023-03-03T01:10:08;-0.70;99.90
16160;DHT22;8185;57.818;15.224;2023-03-03T01:12:37;-0.50;99.90
16160;DHT22;8185;57.818;15.224;2023-03-03T01:15:07;-0.20;99.90
16160;DHT22;8185;57.818;15.224;2023-03-03T01:17:34;-0.20;99.90
16160;DHT22;8185;57.818;15.224;2023-03-03T01:20:02;-0.20;99.90
16160;DHT22;8185;57.818;15.224;2023-03-03T01:22:29;-0.20;99.90
16160;DHT22;8185;57.818;15.224;2023-03-03T01:24:57;-0.10;99.90
16160;DHT22;8185;57.818;15.224;2023-03-03T01:27:24;0.00;99.90
16160;DHT22;8185;57.818;15.224;2023-03-03T01:29:54;-0.10;99.90
16160;DHT22;8185;57.818;15.224;2023-03-03T01:32:22;-0.10;99.90
16160;DHT22;8185;57.818;15.224;2023-03-03T01:34:49;-0.10;99.90
16160;DHT22;8185;57.818;15.224;2023-03-03T01:37:16;0.00;99.90
16160;DHT22;8185;57.818;15.224;2023-03-03T01:39:47;0.20;99.90
16160;DHT22;8185;57.818;15.224;2023-03-03T01:42:15;0.20;99.90
16160;DHT22;8185;57.818;15.224;2023-03-03T01:44:42;0.10;99.90
16160;DHT22;8185;57.818;15.224;2023-03-03T01:47:12;0.10;99.90
16160;DHT22;8185;57.818;15.224;2023-03-03T01:49:45;0.10;99.90
16160;DHT22;8185;57.818;15.224;2023-03-03T01:52:17;0.10;99.90
16160;DHT22;8185;57.818;15.224;2023-03-03T01:54:51;-0.10;99.90
16160;DHT22;8185;57.818;15.224;2023-03-03T01:57:23;-0.30;99.90
16160;DHT22;8185;57.818;15.224;2023-03-03T01:59:52;-0.40;99.90
16160;DHT22;8185;57.818;15.224;2023-03-03T02:02:23;-0.60;99.90
16160;DHT22;8185;57.818;15.224;2023-03-03T02:04:51;-0.60;99.90
16160;DHT22;8185;57.818;15.224;2023-03-03T02:07:19;-0.70;99.90
16160;DHT22;8185;57.818;15.224;2023-03-03T02:09:54;-0.70;99.90
16160;DHT22;8185;57.818;15.224;2023-03-03T02:12:27;-0.80;99.90
16160;DHT22;8185;57.818;15.224;2023-03-03T02:14:57;-0.70;99.90
16160;DHT22;8185;57.818;15.224;2023-03-03T02:17:26;-0.60;99.90
16160;DHT22;8185;57.818;15.224;2023-03-03T02:20:00;-0.60;99.90
16160;DHT22;8185;57.818;15.224;2023-03-03T02:22:36;-0.60;99.90
16160;DHT22;8185;57.818;15.224;2023-03-03T02:25:08;-0.60;99.90
16160;DHT22;8185;57.818;15.224;2023-03-03T02:27:38;-0.60;99.90
16160;DHT22;8185;57.818;15.224;2023-03-03T02:30:13;-0.60;99.90
16160;DHT22;8185;57.818;15.224;2023-03-03T02:32:41;-0.60;99.90
16160;DHT22;8185;57.818;15.224;2023-03-03T02:35:30;-0.60;99.90
16160;DHT22;8185;57.818;15.224;2023-03-03T02:38:03;-0.50;99.90
16160;DHT22;8185;57.818;15.224;2023-03-03T02:40:36;-0.50;99.90
16160;DHT22;8185;57.818;15.224;2023-03-03T02:43:06;-0.50;99.90
16160;DHT22;8185;57.818;15.224;2023-03-03T02:45:41;-0.40;99.90
16160;DHT22;8185;57.818;15.224;2023-03-03T02:48:08;-0.50;99.90
16160;DHT22;8185;57.818;15.224;2023-03-03T02:50:35;-0.60;99.90
16160;DHT22;8185;57.818;15.224;2023-03-03T02:53:03;-0.60;99.90
16160;DHT22;8185;57.818;15.224;2023-03-03T02:55:30;-0.70;99.90
16160;DHT22;8185;57.818;15.224;2023-03-03T02:57:57;-0.60;99.90
16160;DHT22;8185;57.818;15.224;2023-03-03T03:00:26;-0.60;99.90
16160;DHT22;8185;57.818;15.224;2023-03-03T03:02:53;-0.60;99.90
16160;DHT22;8185;57.818;15.224;2023-03-03T03:05:20;-0.70;99.90
16160;DHT22;8185;57.818;15.224;2023-03-03T03:07:47;-0.80;99.90
16160;DHT22;8185;57.818;15.224;2023-03-03T03:10:14;-0.80;99.90
16160;DHT22;8185;57.818;15.224;2023-03-03T03:12:41;-0.80;99.90
16160;DHT22;8185;57.818;15.224;2023-03-03T03:15:09;-0.80;99.90
16160;DHT22;8185;57.818;15.224;2023-03-03T03:17:38;-0.80;99.90
16160;DHT22;8185;57.818;15.224;2023-03-03T03:20:06;-0.90;99.90
16160;DHT22;8185;57.818;15.224;2023-03-03T03:22:33;-0.80;99.90
16160;DHT22;8185;57.818;15.224;2023-03-03T03:25:01;-0.70;99.90
16160;DHT22;8185;57.818;15.224;2023-03-03T03:27:28;-0.70;99.90
16160;DHT22;8185;57.818;15.224;2023-03-03T03:29:55;-0.70;99.90
16160;DHT22;8185;57.818;15.224;2023-03-03T03:32:22;-0.60;99.90
16160;DHT22;8185;57.818;15.224;2023-03-03T03:34:51;-0.60;99.90
16160;DHT22;8185;57.818;15.224;2023-03-03T03:37:18;-0.60;99.90
16160;DHT22;8185;57.818;15.224;2023-03-03T03:39:45;-0.70;99.90
16160;DHT22;8185;57.818;15.224;2023-03-03T03:42:12;-0.60;99.90
16160;DHT22;8185;57.818;15.224;2023-03-03T03:44:39;-0.60;99.90
16160;DHT22;8185;57.818;15.224;2023-03-03T03:47:06;-0.50;99.90
16160;DHT22;8185;57.818;15.224;2023-03-03T03:49:34;-0.50;99.90
16160;DHT22;8185;57.818;15.224;2023-03-03T03:52:03;-0.40;99.90
16160;DHT22;8185;57.818;15.224;2023-03-03T03:54:30;-0.40;99.90
16160;DHT22;8185;57.818;15.224;2023-03-03T03:56:57;-0.40;99.90
16160;DHT22;8185;57.818;15.224;2023-03-03T03:59:24;-0.40;99.90
16160;DHT22;8185;57.818;15.224;2023-03-03T04:01:51;-0.50;99.90
16160;DHT22;8185;57.818;15.224;2023-03-03T04:04:18;-0.50;99.90
16160;DHT22;8185;57.818;15.224;2023-03-03T04:06:46;-0.50;99.90
16160;DHT22;8185;57.818;15.224;2023-03-03T04:09:15;-0.40;99.90
16160;DHT22;8185;57.818;15.224;2023-03-03T04:11:42;-0.50;99.90
16160;DHT22;8185;57.818;15.224;2023-03-03T04:14:09;-0.60;99.90
16160;DHT22;8185;57.818;15.224;2023-03-03T04:16:36;-0.60;99.90
16160;DHT22;8185;57.818;15.224;2023-03-03T04:19:03;-0.60;99.90
16160;DHT22;8185;57.818;15.224;2023-03-03T04:21:31;-0.60;99.90
16160;DHT22;8185;57.818;15.224;2023-03-03T04:23:58;-0.50;99.90
16160;DHT22;8185;57.818;15.224;2023-03-03T04:26:27;-0.50;99.90
16160;DHT22;8185;57.818;15.224;2023-03-03T04:28:55;-0.50;99.90
16160;DHT22;8185;57.818;15.224;2023-03-03T04:31:23;-0.50;99.90
16160;DHT22;8185;57.818;15.224;2023-03-03T04:33:50;-0.50;99.90
16160;DHT22;8185;57.818;15.224;2023-03-03T04:36:18;-0.50;99.90
16160;DHT22;8185;57.818;15.224;2023-03-03T04:38:46;-0.50;99.90
16160;DHT22;8185;57.818;15.224;2023-03-03T04:41:13;-0.60;99.90
16160;DHT22;8185;57.818;15.224;2023-03-03T04:43:42;-0.60;99.90
16160;DHT22;8185;57.818;15.224;2023-03-03T04:46:09;-0.60;99.90
16160;DHT22;8185;57.818;15.224;2023-03-03T04:48:36;-0.60;99.90
16160;DHT22;8185;57.818;15.224;2023-03-03T04:51:04;-0.60;99.90
16160;DHT22;8185;57.818;15.224;2023-03-03T04:53:31;-0.60;99.90
16160;DHT22;8185;57.818;15.224;2023-03-03T04:55:58;-0.60;99.90
16160;DHT22;8185;57.818;15.224;2023-03-03T04:58:25;-0.60;99.90
16160;DHT22;8185;57.818;15.224;2023-03-03T05:00:55;-0.60;99.90
16160;DHT22;8185;57.818;15.224;2023-03-03T05:03:23;-0.60;99.90
16160;DHT22;8185;57.818;15.224;2023-03-03T05:05:51;-0.60;99.90
16160;DHT22;8185;57.818;15.224;2023-03-03T05:08:18;-0.60;99.90
16160;DHT22;8185;57.818;15.224;2023-03-03T05:10:45;-0.60;99.90
16160;DHT22;8185;57.818;15.224;2023-03-03T05:13:12;-0.60;99.90
16160;DHT22;8185;57.818;15.224;2023-03-03T05:15:41;-0.70;99.90
16160;DHT22;8185;57.818;15.224;2023-03-03T05:18:10;-0.70;99.90
16160;DHT22;8185;57.818;15.224;2023-03-03T05:20:39;-0.80;99.90
16160;DHT22;8185;57.818;15.224;2023-03-03T05:23:06;-0.80;99.90
16160;DHT22;8185;57.818;15.224;2023-03-03T05:25:33;-0.80;99.90
16160;DHT22;8185;57.818;15.224;2023-03-03T05:28:01;-0.90;99.90
16160;DHT22;8185;57.818;15.224;2023-03-03T05:30:29;-1.00;99.90
16160;DHT22;8185;57.818;15.224;2023-03-03T05:32:56;-1.10;99.90
16160;DHT22;8185;57.818;15.224;2023-03-03T05:35:26;-1.20;99.90
16160;DHT22;8185;57.818;15.224;2023-03-03T05:37:54;-1.30;99.90
16160;DHT22;8185;57.818;15.224;2023-03-03T05:40:23;-1.30;99.90
16160;DHT22;8185;57.818;15.224;2023-03-03T05:42:50;-1.30;99.90
16160;DHT22;8185;57.818;15.224;2023-03-03T05:45:17;-1.40;99.90
16160;DHT22;8185;57.818;15.224;2023-03-03T05:47:46;-1.30;99.90
16160;DHT22;8185;57.818;15.224;2023-03-03T05:50:13;-1.40;99.90
16160;DHT22;8185;57.818;15.224;2023-03-03T05:52:42;-1.30;99.90
16160;DHT22;8185;57.818;15.224;2023-03-03T05:55:10;-1.30;99.90
16160;DHT22;8185;57.818;15.224;2023-03-03T05:57:37;-1.20;99.90
16160;DHT22;8185;57.818;15.224;2023-03-03T06:00:05;-1.20;99.90
16160;DHT22;8185;57.818;15.224;2023-03-03T06:02:33;-1.30;99.90
16160;DHT22;8185;57.818;15.224;2023-03-03T06:05:00;-1.30;99.90
16160;DHT22;8185;57.818;15.224;2023-03-03T06:07:27;-1.30;99.90
16160;DHT22;8185;57.818;15.224;2023-03-03T06:09:56;-1.20;99.90
16160;DHT22;8185;57.818;15.224;2023-03-03T06:12:23;-1.20;99.90
16160;DHT22;8185;57.818;15.224;2023-03-03T06:14:50;-1.10;99.90
16160;DHT22;8185;57.818;15.224;2023-03-03T06:17:17;-1.10;99.90
16160;DHT22;8185;57.818;15.224;2023-03-03T06:19:44;-1.00;99.90
16160;DHT22;8185;57.818;15.224;2023-03-03T06:22:12;-0.90;99.90
16160;DHT22;8185;57.818;15.224;2023-03-03T06:24:39;-0.80;99.90
16160;DHT22;8185;57.818;15.224;2023-03-03T06:27:09;-0.80;99.90
16160;DHT22;8185;57.818;15.224;2023-03-03T06:29:36;-0.70;99.90
16160;DHT22;8185;57.818;15.224;2023-03-03T06:32:03;-0.70;99.90
16160;DHT22;8185;57.818;15.224;2023-03-03T06:34:31;-0.60;99.90
16160;DHT22;8185;57.818;15.224;2023-03-03T06:36:58;-0.50;99.90
16160;DHT22;8185;57.818;15.224;2023-03-03T06:39:25;-0.50;99.90
16160;DHT22;8185;57.818;15.224;2023-03-03T06:41:52;-0.40;99.90
16160;DHT22;8185;57.818;15.224;2023-03-03T06:44:21;-0.30;99.90
16160;DHT22;8185;57.818;15.224;2023-03-03T06:46:48;-0.10;99.90
16160;DHT22;8185;57.818;15.224;2023-03-03T06:49:15;0.00;99.90
16160;DHT22;8185;57.818;15.224;2023-03-03T06:51:43;0.20;99.90
16160;DHT22;8185;57.818;15.224;2023-03-03T06:54:13;0.30;99.90
16160;DHT22;8185;57.818;15.224;2023-03-03T06:56:41;0.40;99.90
16160;DHT22;8185;57.818;15.224;2023-03-03T06:59:12;0.50;99.90
16160;DHT22;8185;57.818;15.224;2023-03-03T07:01:43;0.60;99.90
16160;DHT22;8185;57.818;15.224;2023-03-03T07:04:19;0.70;99.90
16160;DHT22;8185;57.818;15.224;2023-03-03T07:06:48;0.80;99.90
16160;DHT22;8185;57.818;15.224;2023-03-03T07:09:20;0.90;99.90
16160;DHT22;8185;57.818;15.224;2023-03-03T07:11:49;0.90;99.90
16160;DHT22;8185;57.818;15.224;2023-03-03T07:14:18;1.00;99.90
16160;DHT22;8185;57.818;15.224;2023-03-03T07:16:51;1.00;99.90
16160;DHT22;8185;57.818;15.224;2023-03-03T07:19:29;1.00;99.90
16160;DHT22;8185;57.818;15.224;2023-03-03T07:21:57;1.00;99.90
16160;DHT22;8185;57.818;15.224;2023-03-03T07:24:27;1.00;99.90
16160;DHT22;8185;57.818;15.224;2023-03-03T07:26:59;1.10;99.90
16160;DHT22;8185;57.818;15.224;2023-03-03T07:29:28;1.30;99.90
16160;DHT22;8185;57.818;15.224;2023-03-03T07:31:58;1.40;99.90
16160;DHT22;8185;57.818;15.224;2023-03-03T07:34:34;1.50;99.90
16160;DHT22;8185;57.818;15.224;2023-03-03T07:37:08;1.50;99.90
16160;DHT22;8185;57.818;15.224;2023-03-03T07:39:38;1.60;99.90
16160;DHT22;8185;57.818;15.224;2023-03-03T07:42:16;1.60;99.90
16160;DHT22;8185;57.818;15.224;2023-03-03T07:44:45;1.60;99.90
16160;DHT22;8185;57.818;15.224;2023-03-03T07:47:21;1.70;99.90
16160;DHT22;8185;57.818;15.224;2023-03-03T07:49:52;1.90;99.90
16160;DHT22;8185;57.818;15.224;2023-03-03T07:52:28;1.90;99.90
16160;DHT22;8185;57.818;15.224;2023-03-03T07:54:59;2.00;99.90
16160;DHT22;8185;57.818;15.224;2023-03-03T07:57:34;2.00;99.90
16160;DHT22;8185;57.818;15.224;2023-03-03T08:03:25;2.20;99.90
16160;DHT22;8185;57.818;15.224;2023-03-03T08:05:52;2.30;99.90
16160;DHT22;8185;57.818;15.224;2023-03-03T08:08:27;2.30;99.90
16160;DHT22;8185;57.818;15.224;2023-03-03T08:10:57;2.40;99.90
16160;DHT22;8185;57.818;15.224;2023-03-03T08:13:28;2.50;99.90
16160;DHT22;8185;57.818;15.224;2023-03-03T08:15:59;2.50;99.90
16160;DHT22;8185;57.818;15.224;2023-03-03T08:18:33;2.50;99.90
16160;DHT22;8185;57.818;15.224;2023-03-03T08:21:01;2.60;99.90
16160;DHT22;8185;57.818;15.224;2023-03-03T08:23:28;2.70;99.90
16160;DHT22;8185;57.818;15.224;2023-03-03T08:25:56;2.70;99.90
16160;DHT22;8185;57.818;15.224;2023-03-03T08:28:23;2.80;99.90
16160;DHT22;8185;57.818;15.224;2023-03-03T08:30:50;2.80;99.90
16160;DHT22;8185;57.818;15.224;2023-03-03T08:33:17;2.90;99.90
16160;DHT22;8185;57.818;15.224;2023-03-03T08:35:46;2.90;99.90
16160;DHT22;8185;57.818;15.224;2023-03-03T08:38:15;3.00;99.90
16160;DHT22;8185;57.818;15.224;2023-03-03T08:40:43;3.10;99.90
16160;DHT22;8185;57.818;15.224;2023-03-03T08:43:12;3.20;99.90
16160;DHT22;8185;57.818;15.224;2023-03-03T08:45:42;3.30;99.90
16160;DHT22;8185;57.818;15.224;2023-03-03T08:48:10;3.40;99.90
16160;DHT22;8185;57.818;15.224;2023-03-03T08:50:38;3.40;99.90
16160;DHT22;8185;57.818;15.224;2023-03-03T08:53:07;3.40;99.90
16160;DHT22;8185;57.818;15.224;2023-03-03T08:55:34;3.50;99.90
16160;DHT22;8185;57.818;15.224;2023-03-03T08:58:01;3.60;99.90
16160;DHT22;8185;57.818;15.224;2023-03-03T09:00:28;3.70;99.90
16160;DHT22;8185;57.818;15.224;2023-03-03T09:02:56;3.70;99.90
16160;DHT22;8185;57.818;15.224;2023-03-03T09:05:24;3.80;99.90
16160;DHT22;8185;57.818;15.224;2023-03-03T09:07:53;3.90;99.90
16160;DHT22;8185;57.818;15.224;2023-03-03T09:10:24;4.00;99.90
16160;DHT22;8185;57.818;15.224;2023-03-03T09:12:56;4.10;99.90
16160;DHT22;8185;57.818;15.224;2023-03-03T09:15:26;4.10;99.90
16160;DHT22;8185;57.818;15.224;2023-03-03T09:17:57;4.30;99.90
16160;DHT22;8185;57.818;15.224;2023-03-03T09:20:31;4.40;99.90
16160;DHT22;8185;57.818;15.224;2023-03-03T09:25:35;4.60;99.90
16160;DHT22;8185;57.818;15.224;2023-03-03T09:28:04;4.60;99.90
16160;DHT22;8185;57.818;15.224;2023-03-03T09:30:39;4.60;99.90
16160;DHT22;8185;57.818;15.224;2023-03-03T09:33:27;4.60;99.90
16160;DHT22;8185;57.818;15.224;2023-03-03T09:36:02;4.60;99.90
16160;DHT22;8185;57.818;15.224;2023-03-03T09:38:31;4.80;99.90
16160;DHT22;8185;57.818;15.224;2023-03-03T09:41:21;4.90;99.90
16160;DHT22;8185;57.818;15.224;2023-03-03T09:44:10;5.00;99.90
16160;DHT22;8185;57.818;15.224;2023-03-03T09:46:53;5.00;99.90
16160;DHT22;8185;57.818;15.224;2023-03-03T09:49:30;5.10;99.90
16160;DHT22;8185;57.818;15.224;2023-03-03T09:52:20;5.20;99.90
16160;DHT22;8185;57.818;15.224;2023-03-03T09:55:04;5.40;99.90
16160;DHT22;8185;57.818;15.224;2023-03-03T09:57:47;5.50;99.90
16160;DHT22;8185;57.818;15.224;2023-03-03T10:00:29;5.80;99.90
16160;DHT22;8185;57.818;15.224;2023-03-03T10:03:29;6.10;99.90
16160;DHT22;8185;57.818;15.224;2023-03-03T10:06:02;6.20;99.90
16160;DHT22;8185;57.818;15.224;2023-03-03T10:08:39;6.30;99.90
16160;DHT22;8185;57.818;15.224;2023-03-03T10:11:18;6.60;99.90
16160;DHT22;8185;57.818;15.224;2023-03-03T10:14:03;6.90;99.90
16160;DHT22;8185;57.818;15.224;2023-03-03T10:16:50;6.40;99.90
16160;DHT22;8185;57.818;15.224;2023-03-03T10:19:38;6.10;99.90
16160;DHT22;8185;57.818;15.224;2023-03-03T10:22:20;6.00;99.90
16160;DHT22;8185;57.818;15.224;2023-03-03T10:25:02;6.20;99.90
16160;DHT22;8185;57.818;15.224;2023-03-03T10:27:55;6.50;99.90
16160;DHT22;8185;57.818;15.224;2023-03-03T10:30:37;6.70;99.90
16160;DHT22;8185;57.818;15.224;2023-03-03T10:33:13;6.90;99.90
16160;DHT22;8185;57.818;15.224;2023-03-03T10:36:03;6.90;99.90
16160;DHT22;8185;57.818;15.224;2023-03-03T10:38:43;6.80;99.00
16160;DHT22;8185;57.818;15.224;2023-03-03T10:41:25;7.00;98.80
16160;DHT22;8185;57.818;15.224;2023-03-03T10:44:05;7.20;97.80
16160;DHT22;8185;57.818;15.224;2023-03-03T10:46:51;7.20;98.40
16160;DHT22;8185;57.818;15.224;2023-03-03T10:49:33;7.60;96.70
16160;DHT22;8185;57.818;15.224;2023-03-03T10:52:26;8.00;95.60
16160;DHT22;8185;57.818;15.224;2023-03-03T10:55:30;8.70;96.60
16160;DHT22;8185;57.818;15.224;2023-03-03T10:58:21;8.40;95.60
16160;DHT22;8185;57.818;15.224;2023-03-03T11:00:59;8.20;94.40
16160;DHT22;8185;57.818;15.224;2023-03-03T11:03:54;7.80;93.80
16160;DHT22;8185;57.818;15.224;2023-03-03T11:06:28;7.60;94.70
16160;DHT22;8185;57.818;15.224;2023-03-03T11:09:07;7.80;95.50
16160;DHT22;8185;57.818;15.224;2023-03-03T11:11:44;8.50;94.60
16160;DHT22;8185;57.818;15.224;2023-03-03T11:14:22;9.00;95.20
16160;DHT22;8185;57.818;15.224;2023-03-03T11:16:58;9.00;92.20
16160;DHT22;8185;57.818;15.224;2023-03-03T11:19:48;9.10;91.70
16160;DHT22;8185;57.818;15.224;2023-03-03T11:22:30;8.10;91.30
16160;DHT22;8185;57.818;15.224;2023-03-03T11:25:07;8.00;92.60
16160;DHT22;8185;57.818;15.224;2023-03-03T11:27:55;7.90;92.40
16160;DHT22;8185;57.818;15.224;2023-03-03T11:30:35;7.70;93.30
16160;DHT22;8185;57.818;15.224;2023-03-03T11:33:11;7.60;93.30
16160;DHT22;8185;57.818;15.224;2023-03-03T11:35:44;7.80;93.40
16160;DHT22;8185;57.818;15.224;2023-03-03T11:41:41;7.40;91.60
16160;DHT22;8185;57.818;15.224;2023-03-03T11:44:16;7.40;91.40
16160;DHT22;8185;57.818;15.224;2023-03-03T11:46:47;7.50;92.50
16160;DHT22;8185;57.818;15.224;2023-03-03T11:49:19;7.70;91.50
16160;DHT22;8185;57.818;15.224;2023-03-03T11:51:58;7.90;90.80
16160;DHT22;8185;57.818;15.224;2023-03-03T11:54:31;8.00;92.30
16160;DHT22;8185;57.818;15.224;2023-03-03T11:57:13;7.90;89.70
16160;DHT22;8185;57.818;15.224;2023-03-03T11:59:55;8.00;88.40
16160;DHT22;8185;57.818;15.224;2023-03-03T12:03:01;7.90;87.30
16160;DHT22;8185;57.818;15.224;2023-03-03T12:05:41;7.80;86.30
16160;DHT22;8185;57.818;15.224;2023-03-03T12:08:22;7.80;90.30
16160;DHT22;8185;57.818;15.224;2023-03-03T12:10:54;7.80;88.00
16160;DHT22;8185;57.818;15.224;2023-03-03T12:13:32;7.80;85.40
16160;DHT22;8185;57.818;15.224;2023-03-03T12:16:09;7.80;86.20
16160;DHT22;8185;57.818;15.224;2023-03-03T12:19:08;7.90;86.00
16160;DHT22;8185;57.818;15.224;2023-03-03T12:21:55;8.00;84.10
16160;DHT22;8185;57.818;15.224;2023-03-03T12:24:50;8.40;85.00
16160;DHT22;8185;57.818;15.224;2023-03-03T12:27:24;8.60;82.00
16160;DHT22;8185;57.818;15.224;2023-03-03T12:30:02;8.90;78.40
16160;DHT22;8185;57.818;15.224;2023-03-03T12:35:34;9.10;79.90
16160;DHT22;8185;57.818;15.224;2023-03-03T12:38:07;9.20;77.80
16160;DHT22;8185;57.818;15.224;2023-03-03T12:40:43;8.90;74.80
16160;DHT22;8185;57.818;15.224;2023-03-03T12:43:20;9.10;78.50
16160;DHT22;8185;57.818;15.224;2023-03-03T12:45:55;9.20;78.00
16160;DHT22;8185;57.818;15.224;2023-03-03T12:48:36;9.10;74.90
16160;DHT22;8185;57.818;15.224;2023-03-03T12:51:13;9.60;76.70
16160;DHT22;8185;57.818;15.224;2023-03-03T12:54:13;9.60;74.70
16160;DHT22;8185;57.818;15.224;2023-03-03T12:56:47;9.20;75.90
16160;DHT22;8185;57.818;15.224;2023-03-03T12:59:23;9.30;73.90
16160;DHT22;8185;57.818;15.224;2023-03-03T13:02:09;8.70;75.60
16160;DHT22;8185;57.818;15.224;2023-03-03T13:04:45;8.70;75.90
16160;DHT22;8185;57.818;15.224;2023-03-03T13:07:17;8.90;76.10
16160;DHT22;8185;57.818;15.224;2023-03-03T13:10:02;9.00;75.60
16160;DHT22;8185;57.818;15.224;2023-03-03T13:12:40;8.70;74.70
16160;DHT22;8185;57.818;15.224;2023-03-03T13:15:14;8.90;74.10
16160;DHT22;8185;57.818;15.224;2023-03-03T13:17:50;8.50;76.30
16160;DHT22;8185;57.818;15.224;2023-03-03T13:20:28;8.40;74.20
16160;DHT22;8185;57.818;15.224;2023-03-03T13:23:03;8.60;79.70
16160;DHT22;8185;57.818;15.224;2023-03-03T13:25:45;8.50;74.40
16160;DHT22;8185;57.818;15.224;2023-03-03T13:28:22;8.50;76.30
16160;DHT22;8185;57.818;15.224;2023-03-03T13:30:56;8.30;76.80
16160;DHT22;8185;57.818;15.224;2023-03-03T13:33:26;8.20;76.30
16160;DHT22;8185;57.818;15.224;2023-03-03T13:35:57;8.20;76.80
16160;DHT22;8185;57.818;15.224;2023-03-03T13:38:27;8.30;76.10
16160;DHT22;8185;57.818;15.224;2023-03-03T13:41:03;8.40;77.00
16160;DHT22;8185;57.818;15.224;2023-03-03T13:43:37;8.10;75.80
16160;DHT22;8185;57.818;15.224;2023-03-03T13:46:13;8.10;77.10
16160;DHT22;8185;57.818;15.224;2023-03-03T13:48:49;7.80;76.70
16160;DHT22;8185;57.818;15.224;2023-03-03T13:51:24;8.40;78.00
16160;DHT22;8185;57.818;15.224;2023-03-03T13:53:59;8.70;78.20
16160;DHT22;8185;57.818;15.224;2023-03-03T13:56:39;8.60;75.10
16160;DHT22;8185;57.818;15.224;2023-03-03T13:59:16;8.70;75.50
16160;DHT22;8185;57.818;15.224;2023-03-03T14:01:54;8.70;75.30
16160;DHT22;8185;57.818;15.224;2023-03-03T14:04:42;8.90;78.80
16160;DHT22;8185;57.818;15.224;2023-03-03T14:07:18;8.80;75.00
16160;DHT22;8185;57.818;15.224;2023-03-03T14:09:58;9.00;79.70
16160;DHT22;8185;57.818;15.224;2023-03-03T14:12:36;9.40;76.80
16160;DHT22;8185;57.818;15.224;2023-03-03T14:15:15;9.20;76.40
16160;DHT22;8185;57.818;15.224;2023-03-03T14:18:01;9.30;79.10
16160;DHT22;8185;57.818;15.224;2023-03-03T14:20:32;9.30;77.90
16160;DHT22;8185;57.818;15.224;2023-03-03T14:23:02;9.30;75.60
16160;DHT22;8185;57.818;15.224;2023-03-03T14:25:51;9.10;76.50
16160;DHT22;8185;57.818;15.224;2023-03-03T14:28:20;9.40;76.80
16160;DHT22;8185;57.818;15.224;2023-03-03T14:30:52;9.10;76.10
16160;DHT22;8185;57.818;15.224;2023-03-03T14:33:29;9.30;77.30
16160;DHT22;8185;57.818;15.224;2023-03-03T14:36:04;8.90;75.00
16160;DHT22;8185;57.818;15.224;2023-03-03T14:38:47;8.60;77.70
16160;DHT22;8185;57.818;15.224;2023-03-03T14:41:21;8.30;77.70
16160;DHT22;8185;57.818;15.224;2023-03-03T14:43:57;8.70;81.30
16160;DHT22;8185;57.818;15.224;2023-03-03T14:46:35;8.40;77.90
16160;DHT22;8185;57.818;15.224;2023-03-03T14:49:05;8.10;79.20
16160;DHT22;8185;57.818;15.224;2023-03-03T14:51:40;7.80;80.00
16160;DHT22;8185;57.818;15.224;2023-03-03T14:54:13;7.40;80.50
16160;DHT22;8185;57.818;15.224;2023-03-03T14:57:00;7.20;82.60
16160;DHT22;8185;57.818;15.224;2023-03-03T14:59:29;7.00;83.70
16160;DHT22;8185;57.818;15.224;2023-03-03T15:02:11;6.90;84.90
16160;DHT22;8185;57.818;15.224;2023-03-03T15:05:12;6.70;84.60
16160;DHT22;8185;57.818;15.224;2023-03-03T15:07:39;6.40;85.80
16160;DHT22;8185;57.818;15.224;2023-03-03T15:10:07;6.30;88.30
16160;DHT22;8185;57.818;15.224;2023-03-03T15:12:38;6.20;90.20
16160;DHT22;8185;57.818;15.224;2023-03-03T15:15:17;6.40;85.80
16160;DHT22;8185;57.818;15.224;2023-03-03T15:17:56;6.40;86.40
16160;DHT22;8185;57.818;15.224;2023-03-03T15:20:31;6.60;84.30
16160;DHT22;8185;57.818;15.224;2023-03-03T15:23:15;6.80;84.70
16160;DHT22;8185;57.818;15.224;2023-03-03T15:25:53;6.90;84.60
16160;DHT22;8185;57.818;15.224;2023-03-03T15:28:33;7.20;83.90
16160;DHT22;8185;57.818;15.224;2023-03-03T15:31:08;7.20;84.50
16160;DHT22;8185;57.818;15.224;2023-03-03T15:33:49;6.90;86.50
16160;DHT22;8185;57.818;15.224;2023-03-03T15:36:27;6.60;85.70
16160;DHT22;8185;57.818;15.224;2023-03-03T15:39:02;6.50;86.00
16160;DHT22;8185;57.818;15.224;2023-03-03T15:41:39;6.40;86.00
16160;DHT22;8185;57.818;15.224;2023-03-03T15:44:17;6.20;86.60
16160;DHT22;8185;57.818;15.224;2023-03-03T15:47:03;6.10;86.90
16160;DHT22;8185;57.818;15.224;2023-03-03T15:50:11;6.00;86.70
16160;DHT22;8185;57.818;15.224;2023-03-03T15:52:51;5.90;88.50
16160;DHT22;8185;57.818;15.224;2023-03-03T15:55:34;5.80;88.30
16160;DHT22;8185;57.818;15.224;2023-03-03T15:58:19;5.70;89.70
16160;DHT22;8185;57.818;15.224;2023-03-03T16:00:56;5.50;90.50
16160;DHT22;8185;57.818;15.224;2023-03-03T16:03:30;5.40;91.90
16160;DHT22;8185;57.818;15.224;2023-03-03T16:06:05;5.20;92.70
16160;DHT22;8185;57.818;15.224;2023-03-03T16:08:42;5.00;93.20
16160;DHT22;8185;57.818;15.224;2023-03-03T16:11:14;5.00;92.80
16160;DHT22;8185;57.818;15.224;2023-03-03T16:13:53;4.90;94.00
16160;DHT22;8185;57.818;15.224;2023-03-03T16:16:39;4.80;94.50
16160;DHT22;8185;57.818;15.224;2023-03-03T16:19:26;4.70;94.10
16160;DHT22;8185;57.818;15.224;2023-03-03T16:22:08;4.60;95.40
16160;DHT22;8185;57.818;15.224;2023-03-03T16:24:46;4.80;95.10
16160;DHT22;8185;57.818;15.224;2023-03-03T16:27:19;4.80;94.60
16160;DHT22;8185;57.818;15.224;2023-03-03T16:30:00;4.70;93.70
16160;DHT22;8185;57.818;15.224;2023-03-03T16:32:36;4.50;94.40
16160;DHT22;8185;57.818;15.224;2023-03-03T16:35:19;4.40;94.60
16160;DHT22;8185;57.818;15.224;2023-03-03T16:37:55;4.30;94.70